createdAt,value
2016-11-20T00:00:15.563Z,0
2016-11-20T00:01:15.580Z,0
2016-11-20T00:02:15.600Z,0
2016-11-20T00:03:30.531Z,0
2016-11-20T00:04:15.637Z,0
2016-11-20T00:05:15.657Z,0
2016-11-20T00:06:45.502Z,0
2016-11-20T00:07:15.684Z,0
2016-11-20T00:08:15.708Z,0
2016-11-20T00:09:15.924Z,0
2016-11-20T00:11:15.758Z,0
2016-11-20T00:12:15.776Z,0
2016-11-20T00:13:15.791Z,0
2016-11-20T00:14:15.818Z,0
2016-11-20T00:15:15.826Z,0
2016-11-20T00:16:15.843Z,0
2016-11-20T00:17:15.860Z,0
2016-11-20T00:18:15.883Z,0
2016-11-20T00:19:15.897Z,0
2016-11-20T00:20:15.913Z,0
2016-11-20T00:21:30.849Z,0
2016-11-20T00:22:15.970Z,0
2016-11-20T00:23:15.988Z,0
2016-11-20T00:24:15.984Z,0
2016-11-20T00:25:16.002Z,0
2016-11-20T00:26:16.023Z,0
2016-11-20T00:27:16.292Z,0
2016-11-20T00:28:16.066Z,0
2016-11-20T00:29:16.077Z,0
2016-11-20T00:30:16.089Z,0
2016-11-20T00:31:16.135Z,0
2016-11-20T00:32:16.125Z,0
2016-11-20T00:33:16.145Z,0
2016-11-20T00:34:16.161Z,0
2016-11-20T00:36:16.191Z,0
2016-11-20T00:37:31.124Z,0
2016-11-20T00:38:16.232Z,0
2016-11-20T00:39:16.247Z,0
2016-11-20T00:40:16.300Z,0
2016-11-20T00:41:31.195Z,0
2016-11-20T00:43:16.316Z,0
2016-11-20T00:44:16.336Z,0
2016-11-20T00:45:16.347Z,0
2016-11-20T00:46:16.367Z,0
2016-11-20T00:47:16.384Z,0
2016-11-20T00:48:16.399Z,0
2016-11-20T00:49:16.417Z,0
2016-11-20T00:50:16.436Z,0
2016-11-20T00:51:16.460Z,0
2016-11-20T00:53:31.400Z,0
2016-11-20T00:54:16.508Z,0
2016-11-20T00:56:16.539Z,0
2016-11-20T00:57:16.557Z,0
2016-11-20T00:58:16.572Z,0
2016-11-20T00:59:16.592Z,0
2016-11-20T01:00:16.607Z,0
2016-11-20T01:01:16.626Z,0
2016-11-20T01:02:16.645Z,0
2016-11-20T01:03:16.656Z,0
2016-11-20T01:04:16.684Z,0
2016-11-20T01:05:16.690Z,0
2016-11-20T01:06:31.626Z,0
2016-11-20T01:07:16.725Z,0
2016-11-20T01:08:31.660Z,0
2016-11-20T01:09:31.675Z,0
2016-11-20T01:10:16.777Z,0
2016-11-20T01:11:16.796Z,0
2016-11-20T01:12:16.813Z,0
2016-11-20T01:13:16.832Z,0
2016-11-20T01:14:16.842Z,0
2016-11-20T01:15:16.864Z,0
2016-11-20T01:16:16.879Z,0
2016-11-20T01:17:16.948Z,0
2016-11-20T01:18:17.230Z,0
2016-11-20T01:19:16.939Z,0
2016-11-20T01:20:16.951Z,0
2016-11-20T01:21:16.966Z,0
2016-11-20T01:22:16.990Z,0
2016-11-20T01:23:17.002Z,0
2016-11-20T01:24:31.933Z,0
2016-11-20T01:25:31.945Z,0
2016-11-20T01:27:17.068Z,0
2016-11-20T01:28:17.089Z,0
2016-11-20T01:29:17.104Z,0
2016-11-20T01:30:17.117Z,0
2016-11-20T01:31:17.138Z,0
2016-11-20T01:32:17.166Z,0
2016-11-20T01:33:17.476Z,0
2016-11-20T01:34:17.199Z,0
2016-11-20T01:35:32.125Z,0
2016-11-20T01:36:32.133Z,0
2016-11-20T01:37:17.236Z,0
2016-11-20T01:38:17.253Z,0
2016-11-20T01:39:17.274Z,0
2016-11-20T01:40:17.285Z,0
2016-11-20T01:41:32.216Z,0
2016-11-20T01:43:17.344Z,0
2016-11-20T01:44:17.355Z,0
2016-11-20T01:45:17.376Z,0
2016-11-20T01:46:17.393Z,0
2016-11-20T01:48:17.426Z,0
2016-11-20T01:49:17.442Z,0
2016-11-20T01:50:17.507Z,0
2016-11-20T01:51:17.475Z,0
2016-11-20T01:52:17.494Z,0
2016-11-20T01:53:17.513Z,0
2016-11-20T01:54:17.522Z,0
2016-11-20T01:55:17.543Z,0
2016-11-20T01:56:32.625Z,0
2016-11-20T01:57:17.578Z,0
2016-11-20T01:58:17.617Z,0
2016-11-20T01:59:17.607Z,0
2016-11-20T02:00:17.626Z,0
2016-11-20T02:01:17.643Z,0
2016-11-20T02:02:32.576Z,0
2016-11-20T02:03:17.677Z,0
2016-11-20T02:04:17.695Z,0
2016-11-20T02:05:17.712Z,0
2016-11-20T02:06:32.673Z,0
2016-11-20T02:07:17.746Z,0
2016-11-20T02:09:17.782Z,0
2016-11-20T02:10:17.843Z,0
2016-11-20T02:11:17.819Z,0
2016-11-20T02:12:17.830Z,0
2016-11-20T02:13:17.846Z,0
2016-11-20T02:14:17.868Z,0
2016-11-20T02:15:17.889Z,0
2016-11-20T02:16:17.898Z,0
2016-11-20T02:17:17.911Z,0
2016-11-20T02:18:17.932Z,0
2016-11-20T02:19:17.971Z,0
2016-11-20T02:20:17.965Z,0
2016-11-20T02:21:17.985Z,0
2016-11-20T02:22:17.999Z,0
2016-11-20T02:23:18.012Z,0
2016-11-20T02:24:18.035Z,0
2016-11-20T02:25:18.046Z,0
2016-11-20T02:26:32.980Z,0
2016-11-20T02:27:18.081Z,0
2016-11-20T02:28:33.014Z,0
2016-11-20T02:29:33.027Z,0
2016-11-20T02:30:18.136Z,0
2016-11-20T02:31:18.174Z,0
2016-11-20T02:32:18.174Z,0
2016-11-20T02:34:33.121Z,0
2016-11-20T02:35:18.233Z,0
2016-11-20T02:36:18.255Z,0
2016-11-20T02:37:18.253Z,0
2016-11-20T02:38:18.266Z,0
2016-11-20T02:39:33.202Z,0
2016-11-20T02:40:18.306Z,0
2016-11-20T02:41:18.312Z,0
2016-11-20T02:42:18.339Z,0
2016-11-20T02:43:18.347Z,0
2016-11-20T02:44:33.280Z,0
2016-11-20T02:45:18.382Z,0
2016-11-20T02:46:18.407Z,0
2016-11-20T02:47:18.424Z,0
2016-11-20T02:49:33.368Z,0
2016-11-20T02:50:18.460Z,0
2016-11-20T02:51:18.492Z,0
2016-11-20T02:52:18.504Z,0
2016-11-20T02:53:18.831Z,0
2016-11-20T02:54:18.532Z,0
2016-11-20T02:56:18.573Z,0
2016-11-20T02:57:18.582Z,0
2016-11-20T02:58:18.599Z,0
2016-11-20T02:59:18.619Z,0
2016-11-20T03:00:48.463Z,0
2016-11-20T03:01:18.660Z,0
2016-11-20T03:02:18.672Z,0
2016-11-20T03:03:18.685Z,0
2016-11-20T03:04:18.702Z,0
2016-11-20T03:06:18.737Z,0
2016-11-20T03:07:18.752Z,0
2016-11-20T03:08:18.796Z,0
2016-11-20T03:09:18.785Z,0
2016-11-20T03:10:18.805Z,0
2016-11-20T03:11:18.816Z,0
2016-11-20T03:12:18.837Z,0
2016-11-20T03:13:18.854Z,0
2016-11-20T03:14:18.868Z,0
2016-11-20T03:15:18.880Z,0
2016-11-20T03:16:33.821Z,0
2016-11-20T03:17:18.921Z,0
2016-11-20T03:18:18.935Z,0
2016-11-20T03:19:18.953Z,0
2016-11-20T03:20:18.967Z,0
2016-11-20T03:21:19.015Z,0
2016-11-20T03:22:18.998Z,0
2016-11-20T03:23:19.017Z,0
2016-11-20T03:24:33.955Z,0
2016-11-20T03:25:19.354Z,0
2016-11-20T03:26:19.069Z,0
2016-11-20T03:27:19.082Z,0
2016-11-20T03:28:19.102Z,0
2016-11-20T03:29:19.119Z,0
2016-11-20T03:30:19.139Z,0
2016-11-20T03:31:34.067Z,0
2016-11-20T03:32:34.080Z,0
2016-11-20T03:33:19.182Z,0
2016-11-20T03:34:19.197Z,0
2016-11-20T03:35:19.218Z,0
2016-11-20T03:36:19.236Z,0
2016-11-20T03:37:19.253Z,0
2016-11-20T03:38:34.206Z,0
2016-11-20T03:39:34.201Z,0
2016-11-20T03:40:19.301Z,0
2016-11-20T03:41:19.323Z,0
2016-11-20T03:42:19.333Z,0
2016-11-20T03:43:19.353Z,0
2016-11-20T03:44:19.365Z,0
2016-11-20T03:45:19.393Z,0
2016-11-20T03:46:19.399Z,0
2016-11-20T03:47:19.416Z,0
2016-11-20T03:48:19.438Z,0
2016-11-20T03:49:34.362Z,0
2016-11-20T03:50:19.476Z,0
2016-11-20T03:51:19.485Z,0
2016-11-20T03:52:34.415Z,0
2016-11-20T03:53:19.534Z,0
2016-11-20T03:54:34.447Z,0
2016-11-20T03:55:19.549Z,0
2016-11-20T03:56:19.565Z,0
2016-11-20T03:57:19.582Z,0
2016-11-20T03:58:19.598Z,0
2016-11-20T03:59:19.619Z,0
2016-11-20T04:00:19.634Z,0
2016-11-20T04:02:19.668Z,0
2016-11-20T04:03:49.513Z,0
2016-11-20T04:04:19.697Z,0
2016-11-20T04:05:19.715Z,0
2016-11-20T04:06:34.641Z,0
2016-11-20T04:07:19.746Z,0
2016-11-20T04:08:19.766Z,0
2016-11-20T04:09:19.779Z,0
2016-11-20T04:10:19.798Z,0
2016-11-20T04:11:19.812Z,0
2016-11-20T04:12:19.832Z,0
2016-11-20T04:13:34.757Z,0
2016-11-20T04:14:19.868Z,0
2016-11-20T04:15:19.880Z,0
2016-11-20T04:16:19.894Z,0
2016-11-20T04:17:19.913Z,0
2016-11-20T04:18:34.843Z,0
2016-11-20T04:19:34.862Z,0
2016-11-20T04:20:19.962Z,0
2016-11-20T04:22:19.998Z,0
2016-11-20T04:23:20.012Z,0
2016-11-20T04:24:20.032Z,0
2016-11-20T04:25:20.043Z,0
2016-11-20T04:26:20.066Z,0
2016-11-20T04:27:20.074Z,0
2016-11-20T04:28:20.099Z,0
2016-11-20T04:29:35.020Z,0
2016-11-20T04:30:20.134Z,0
2016-11-20T04:31:20.138Z,0
2016-11-20T04:32:20.161Z,0
2016-11-20T04:33:20.180Z,0
2016-11-20T04:34:35.107Z,0
2016-11-20T04:35:35.124Z,0
2016-11-20T04:37:20.242Z,0
2016-11-20T04:38:20.258Z,0
2016-11-20T04:39:20.581Z,0
2016-11-20T04:40:20.293Z,0
2016-11-20T04:41:20.304Z,0
2016-11-20T04:42:20.327Z,0
2016-11-20T04:43:20.369Z,0
2016-11-20T04:44:35.268Z,0
2016-11-20T04:45:20.374Z,0
2016-11-20T04:46:35.301Z,0
2016-11-20T04:47:35.323Z,0
2016-11-20T04:49:20.436Z,0
2016-11-20T04:50:20.455Z,0
2016-11-20T04:51:35.386Z,0
2016-11-20T04:52:20.488Z,0
2016-11-20T04:53:20.504Z,0
2016-11-20T04:54:20.520Z,0
2016-11-20T04:55:35.453Z,0
2016-11-20T04:56:20.559Z,0
2016-11-20T04:57:20.567Z,0
2016-11-20T04:58:20.584Z,0
2016-11-20T04:59:20.603Z,0
2016-11-20T05:00:35.530Z,0
2016-11-20T05:01:20.637Z,0
2016-11-20T05:02:20.653Z,0
2016-11-20T05:03:20.666Z,0
2016-11-20T05:04:20.721Z,0
2016-11-20T05:05:35.616Z,0
2016-11-20T05:06:35.635Z,0
2016-11-20T05:07:20.762Z,0
2016-11-20T05:08:20.750Z,0
2016-11-20T05:09:20.764Z,0
2016-11-20T05:10:20.789Z,0
2016-11-20T05:11:20.799Z,0
2016-11-20T05:12:20.811Z,0
2016-11-20T05:13:35.748Z,0
2016-11-20T05:14:35.763Z,0
2016-11-20T05:15:20.868Z,0
2016-11-20T05:16:35.793Z,0
2016-11-20T05:17:35.814Z,0
2016-11-20T05:18:35.831Z,0
2016-11-20T05:19:20.928Z,0
2016-11-20T05:20:35.862Z,0
2016-11-20T05:22:20.978Z,0
2016-11-20T05:23:20.988Z,0
2016-11-20T05:24:21.014Z,0
2016-11-20T05:25:35.947Z,0
2016-11-20T05:26:21.043Z,0
2016-11-20T05:27:21.059Z,0
2016-11-20T05:28:21.078Z,0
2016-11-20T05:29:21.093Z,0
2016-11-20T05:30:21.109Z,0
2016-11-20T05:31:21.125Z,0
2016-11-20T05:32:21.141Z,0
2016-11-20T05:33:21.160Z,0
2016-11-20T05:34:21.170Z,0
2016-11-20T05:35:21.195Z,0
2016-11-20T05:36:21.220Z,0
2016-11-20T05:37:21.226Z,0
2016-11-20T05:38:51.070Z,0
2016-11-20T05:39:21.259Z,0
2016-11-20T05:40:21.280Z,0
2016-11-20T05:41:21.294Z,0
2016-11-20T05:42:21.308Z,0
2016-11-20T05:43:21.325Z,0
2016-11-20T05:44:21.347Z,0
2016-11-20T05:45:21.362Z,0
2016-11-20T05:46:21.371Z,0
2016-11-20T05:47:21.389Z,0
2016-11-20T05:48:36.320Z,0
2016-11-20T05:49:21.445Z,0
2016-11-20T05:50:21.438Z,0
2016-11-20T05:51:21.455Z,0
2016-11-20T05:52:21.471Z,0
2016-11-20T05:53:21.489Z,0
2016-11-20T05:54:51.335Z,0
2016-11-20T05:55:21.527Z,0
2016-11-20T05:57:21.587Z,0
2016-11-20T05:58:21.584Z,0
2016-11-20T05:59:21.588Z,0
2016-11-20T06:00:21.603Z,0
2016-11-20T06:01:21.620Z,0
2016-11-20T06:02:21.640Z,4
2016-11-20T06:03:21.649Z,4
2016-11-20T06:04:36.585Z,0
2016-11-20T06:05:21.692Z,4
2016-11-20T06:06:21.703Z,4
2016-11-20T06:07:36.637Z,4
2016-11-20T06:08:21.737Z,8
2016-11-20T06:09:21.753Z,12
2016-11-20T06:10:36.683Z,12
2016-11-20T06:12:36.723Z,16
2016-11-20T06:13:21.822Z,16
2016-11-20T06:14:21.841Z,20
2016-11-20T06:15:21.856Z,24
2016-11-20T06:16:21.902Z,28
2016-11-20T06:17:21.886Z,32
2016-11-20T06:18:21.899Z,40
2016-11-20T06:19:21.920Z,44
2016-11-20T06:20:21.939Z,52
2016-11-20T06:21:36.868Z,60
2016-11-20T06:22:21.969Z,68
2016-11-20T06:23:21.989Z,76
2016-11-20T06:24:21.999Z,88
2016-11-20T06:25:36.932Z,100
2016-11-20T06:27:22.048Z,120
2016-11-20T06:28:22.066Z,132
2016-11-20T06:29:22.074Z,144
2016-11-20T06:30:37.018Z,164
2016-11-20T06:31:22.119Z,172
2016-11-20T06:32:22.129Z,184
2016-11-20T06:33:22.200Z,200
2016-11-20T06:34:22.162Z,220
2016-11-20T06:35:22.175Z,236
2016-11-20T06:36:22.197Z,248
2016-11-20T06:37:22.209Z,268
2016-11-20T06:38:22.225Z,284
2016-11-20T06:39:22.245Z,304
2016-11-20T06:40:22.257Z,320
2016-11-20T06:41:37.193Z,340
2016-11-20T06:42:22.302Z,352
2016-11-20T06:43:37.223Z,376
2016-11-20T06:45:22.396Z,408
2016-11-20T06:46:22.357Z,424
2016-11-20T06:47:22.685Z,440
2016-11-20T06:48:22.395Z,456
2016-11-20T06:49:22.410Z,476
2016-11-20T06:50:22.422Z,500
2016-11-20T06:51:22.445Z,524
2016-11-20T06:54:22.487Z,620
2016-11-20T06:55:22.505Z,660
2016-11-20T06:56:22.526Z,708
2016-11-20T06:57:22.545Z,760
2016-11-20T06:58:37.467Z,836
2016-11-20T06:59:22.570Z,880
2016-11-20T07:00:22.585Z,936
2016-11-20T07:01:22.632Z,996
2016-11-20T07:02:22.622Z,1056
2016-11-20T07:03:22.641Z,1120
2016-11-20T07:04:22.654Z,1188
2016-11-20T07:05:22.669Z,1256
2016-11-20T07:06:37.600Z,1392
2016-11-20T07:07:22.703Z,1484
2016-11-20T07:08:22.716Z,1592
2016-11-20T07:09:22.733Z,1704
2016-11-20T07:11:37.681Z,1916
2016-11-20T07:12:22.789Z,1920
2016-11-20T07:13:37.718Z,1856
2016-11-20T07:14:22.812Z,1796
2016-11-20T07:15:22.836Z,1728
2016-11-20T07:16:22.844Z,1692
2016-11-20T07:18:22.877Z,1764
2016-11-20T07:19:22.898Z,1792
2016-11-20T07:20:22.914Z,1784
2016-11-20T07:21:22.931Z,1772
2016-11-20T07:22:37.859Z,1776
2016-11-20T07:23:22.965Z,1772
2016-11-20T07:24:22.985Z,1788
2016-11-20T07:25:22.996Z,1808
2016-11-20T07:27:23.043Z,1864
2016-11-20T07:28:23.044Z,1924
2016-11-20T07:29:37.976Z,1976
2016-11-20T07:30:23.380Z,2012
2016-11-20T07:31:23.097Z,2128
2016-11-20T07:32:23.112Z,2268
2016-11-20T07:33:23.130Z,2380
2016-11-20T07:34:23.144Z,2492
2016-11-20T07:35:23.208Z,2656
2016-11-20T07:36:38.094Z,2788
2016-11-20T07:37:23.194Z,2852
2016-11-20T07:38:23.216Z,2912
2016-11-20T07:39:23.228Z,3060
2016-11-20T07:40:23.242Z,3200
2016-11-20T07:41:23.257Z,3344
2016-11-20T07:42:23.279Z,3452
2016-11-20T07:43:23.291Z,3520
2016-11-20T07:44:23.321Z,3564
2016-11-20T07:45:38.254Z,3492
2016-11-20T07:46:23.343Z,3424
2016-11-20T07:48:23.376Z,3404
2016-11-20T07:49:23.396Z,3280
2016-11-20T07:50:23.417Z,3436
2016-11-20T07:51:23.423Z,3384
2016-11-20T07:52:23.440Z,3320
2016-11-20T07:53:23.458Z,3336
2016-11-20T07:54:23.476Z,3404
2016-11-20T07:55:38.405Z,3504
2016-11-20T07:56:23.504Z,3588
2016-11-20T07:57:23.523Z,4036
2016-11-20T07:58:23.538Z,4500
2016-11-20T08:00:38.491Z,4088
2016-11-20T08:02:23.612Z,4448
2016-11-20T08:03:23.620Z,5172
2016-11-20T08:04:23.642Z,6156
2016-11-20T08:05:23.657Z,6464
2016-11-20T08:06:23.678Z,6216
2016-11-20T08:07:23.698Z,5992
2016-11-20T08:08:38.625Z,5544
2016-11-20T08:10:23.741Z,5104
2016-11-20T08:11:23.756Z,5168
2016-11-20T08:12:23.774Z,5188
2016-11-20T08:13:23.795Z,5128
2016-11-20T08:14:23.816Z,5116
2016-11-20T08:15:23.829Z,5364
2016-11-20T08:17:23.861Z,5488
2016-11-20T08:18:23.878Z,5588
2016-11-20T08:19:38.810Z,5660
2016-11-20T08:20:23.916Z,5824
2016-11-20T08:22:38.866Z,5820
2016-11-20T08:23:23.966Z,5496
2016-11-20T08:24:38.897Z,5504
2016-11-20T08:25:24.012Z,5472
2016-11-20T08:26:24.325Z,5468
2016-11-20T08:27:24.034Z,5448
2016-11-20T08:28:24.354Z,5396
2016-11-20T08:29:24.072Z,5448
2016-11-20T08:30:24.089Z,5496
2016-11-20T08:32:24.119Z,5468
2016-11-20T08:33:24.143Z,5668
2016-11-20T08:34:24.161Z,5600
2016-11-20T08:35:24.173Z,5632
2016-11-20T08:37:24.209Z,5820
2016-11-20T08:38:24.231Z,5708
2016-11-20T08:39:24.273Z,5648
2016-11-20T08:40:24.276Z,5720
2016-11-20T08:41:24.581Z,5788
2016-11-20T08:42:24.294Z,5848
2016-11-20T08:43:24.310Z,5804
2016-11-20T08:44:24.333Z,5680
2016-11-20T08:45:24.349Z,5676
2016-11-20T08:47:24.390Z,5688
2016-11-20T08:48:39.621Z,5748
2016-11-20T08:49:24.413Z,5792
2016-11-20T08:50:24.448Z,5900
2016-11-20T08:51:24.456Z,6064
2016-11-20T08:52:24.475Z,6028
2016-11-20T08:53:24.491Z,5952
2016-11-20T08:54:24.511Z,5972
2016-11-20T08:55:24.527Z,5888
2016-11-20T08:56:24.554Z,5968
2016-11-20T08:57:24.563Z,5932
2016-11-20T08:58:24.577Z,5896
2016-11-20T08:59:24.598Z,5960
2016-11-20T09:00:24.613Z,5972
2016-11-20T09:01:24.634Z,5876
2016-11-20T09:02:24.657Z,6016
2016-11-20T09:03:24.671Z,6076
2016-11-20T09:04:39.607Z,5980
2016-11-20T09:05:24.709Z,6176
2016-11-20T09:06:24.726Z,6480
2016-11-20T09:07:24.742Z,4916
2016-11-20T09:09:24.777Z,6944
2016-11-20T09:10:24.792Z,5776
2016-11-20T09:11:24.814Z,6256
2016-11-20T09:12:24.832Z,4708
2016-11-20T09:13:24.851Z,4472
2016-11-20T09:14:24.868Z,4440
2016-11-20T09:15:24.889Z,4932
2016-11-20T09:16:24.908Z,4816
2016-11-20T09:17:24.925Z,5048
2016-11-20T09:18:24.943Z,4932
2016-11-20T09:20:39.923Z,4952
2016-11-20T09:21:25.000Z,5052
2016-11-20T09:22:25.015Z,5276
2016-11-20T09:23:25.340Z,5452
2016-11-20T09:24:25.051Z,5596
2016-11-20T09:25:25.068Z,5676
2016-11-20T09:26:25.089Z,5892
2016-11-20T09:27:25.108Z,7848
2016-11-20T09:28:40.040Z,6228
2016-11-20T09:29:25.145Z,6516
2016-11-20T09:30:25.165Z,7036
2016-11-20T09:31:25.182Z,9364
2016-11-20T09:32:25.197Z,8932
2016-11-20T09:33:25.211Z,9108
2016-11-20T09:34:25.241Z,7484
2016-11-20T09:35:40.170Z,7676
2016-11-20T09:36:40.189Z,6780
2016-11-20T09:37:25.292Z,7816
2016-11-20T09:38:25.315Z,5904
2016-11-20T09:39:25.329Z,6860
2016-11-20T09:40:25.347Z,6428
2016-11-20T09:41:25.367Z,6940
2016-11-20T09:42:25.387Z,5992
2016-11-20T09:43:40.321Z,4524
2016-11-20T09:44:25.421Z,5236
2016-11-20T09:45:25.471Z,6120
2016-11-20T09:46:25.458Z,4368
2016-11-20T09:47:25.479Z,6384
2016-11-20T09:48:25.498Z,6364
2016-11-20T09:49:25.516Z,6232
2016-11-20T09:50:25.534Z,6008
2016-11-20T09:51:40.472Z,5696
2016-11-20T09:52:25.572Z,5504
2016-11-20T09:53:25.593Z,5308
2016-11-20T09:54:25.613Z,5028
2016-11-20T09:55:25.635Z,4932
2016-11-20T09:56:25.653Z,4752
2016-11-20T09:57:25.666Z,4828
2016-11-20T09:58:25.689Z,4944
2016-11-20T09:59:25.715Z,4920
2016-11-20T10:00:25.728Z,4952
2016-11-20T10:01:25.745Z,4980
2016-11-20T10:02:25.760Z,4608
2016-11-20T10:03:25.787Z,4892
2016-11-20T10:04:25.797Z,5184
2016-11-20T10:05:25.815Z,5520
2016-11-20T10:06:25.834Z,5628
2016-11-20T10:08:25.877Z,6220
2016-11-20T10:09:25.900Z,6284
2016-11-20T10:10:25.914Z,6252
2016-11-20T10:11:25.934Z,6032
2016-11-20T10:12:40.870Z,5668
2016-11-20T10:13:40.891Z,5068
2016-11-20T10:14:25.990Z,4692
2016-11-20T10:15:26.003Z,4304
2016-11-20T10:16:26.286Z,3996
2016-11-20T10:17:26.047Z,3792
2016-11-20T10:18:26.067Z,3644
2016-11-20T10:19:26.086Z,3536
2016-11-20T10:20:26.108Z,3452
2016-11-20T10:21:26.126Z,3404
2016-11-20T10:23:41.087Z,3312
2016-11-20T10:24:26.215Z,3284
2016-11-20T10:25:26.202Z,3280
2016-11-20T10:26:26.318Z,3280
2016-11-20T10:27:26.242Z,3288
2016-11-20T10:28:26.259Z,3256
2016-11-20T10:29:26.278Z,3284
2016-11-20T10:30:41.210Z,3292
2016-11-20T10:31:41.228Z,3316
2016-11-20T10:32:26.336Z,3280
2016-11-20T10:33:26.385Z,3000
2016-11-20T10:34:26.373Z,3204
2016-11-20T10:35:26.393Z,2712
2016-11-20T10:36:41.328Z,2764
2016-11-20T10:37:26.439Z,3096
2016-11-20T10:38:26.453Z,3448
2016-11-20T10:39:56.300Z,3856
2016-11-20T10:40:26.495Z,3932
2016-11-20T10:41:41.419Z,4104
2016-11-20T10:42:26.525Z,4116
2016-11-20T10:43:26.542Z,3912
2016-11-20T10:44:26.564Z,4036
2016-11-20T10:45:26.586Z,3980
2016-11-20T10:46:41.518Z,3812
2016-11-20T10:47:26.625Z,3700
2016-11-20T10:48:26.635Z,3800
2016-11-20T10:49:26.653Z,3800
2016-11-20T10:50:26.678Z,3468
2016-11-20T10:51:26.700Z,3752
2016-11-20T10:52:26.714Z,3588
2016-11-20T10:53:26.738Z,3816
2016-11-20T10:54:26.787Z,3852
2016-11-20T10:55:41.695Z,3656
2016-11-20T10:56:41.706Z,3656
2016-11-20T10:57:26.812Z,4020
2016-11-20T10:58:26.833Z,4268
2016-11-20T10:59:26.856Z,4436
2016-11-20T11:00:26.865Z,4540
2016-11-20T11:01:41.806Z,4628
2016-11-20T11:02:26.909Z,4580
2016-11-20T11:03:26.927Z,4524
2016-11-20T11:04:26.951Z,4464
2016-11-20T11:05:41.880Z,4440
2016-11-20T11:06:26.984Z,4504
2016-11-20T11:07:27.006Z,4584
2016-11-20T11:08:27.020Z,4096
2016-11-20T11:09:27.038Z,4296
2016-11-20T11:10:41.980Z,4256
2016-11-20T11:11:56.914Z,4088
2016-11-20T11:13:27.121Z,4220
2016-11-20T11:14:27.146Z,3948
2016-11-20T11:15:27.194Z,3772
2016-11-20T11:16:27.181Z,3656
2016-11-20T11:17:27.200Z,3580
2016-11-20T11:18:42.137Z,3480
2016-11-20T11:19:27.243Z,3428
2016-11-20T11:20:27.255Z,3412
2016-11-20T11:21:27.283Z,3416
2016-11-20T11:23:27.315Z,3660
2016-11-20T11:24:27.338Z,3736
2016-11-20T11:26:42.296Z,4072
2016-11-20T11:27:27.400Z,3992
2016-11-20T11:28:27.425Z,4076
2016-11-20T11:29:27.745Z,4148
2016-11-20T11:30:27.462Z,4180
2016-11-20T11:31:27.485Z,4196
2016-11-20T11:32:27.504Z,4164
2016-11-20T11:33:27.527Z,4120
2016-11-20T11:34:27.542Z,3832
2016-11-20T11:35:27.560Z,3536
2016-11-20T11:36:27.579Z,3200
2016-11-20T11:37:27.602Z,2924
2016-11-20T11:38:42.843Z,2680
2016-11-20T11:39:27.951Z,2588
2016-11-20T11:41:27.684Z,2472
2016-11-20T11:42:27.704Z,2540
2016-11-20T11:43:27.719Z,2664
2016-11-20T11:44:27.742Z,2812
2016-11-20T11:45:27.764Z,3024
2016-11-20T11:47:42.720Z,3180
2016-11-20T11:48:27.814Z,3208
2016-11-20T11:50:42.775Z,3100
2016-11-20T11:51:27.881Z,2952
2016-11-20T11:52:27.904Z,2828
2016-11-20T11:53:27.922Z,2792
2016-11-20T11:54:27.943Z,2784
2016-11-20T11:55:27.966Z,2724
2016-11-20T11:56:27.989Z,2672
2016-11-20T11:57:27.999Z,2616
2016-11-20T11:58:42.937Z,2484
2016-11-20T11:59:42.957Z,2428
2016-11-20T12:00:28.069Z,2460
2016-11-20T12:01:28.078Z,2528
2016-11-20T12:02:28.105Z,2608
2016-11-20T12:03:28.122Z,2660
2016-11-20T12:04:28.146Z,2676
2016-11-20T12:05:28.164Z,2720
2016-11-20T12:06:28.185Z,2740
2016-11-20T12:07:28.206Z,2740
2016-11-20T12:08:43.145Z,2728
2016-11-20T12:09:28.246Z,2720
2016-11-20T12:10:28.260Z,2696
2016-11-20T12:11:28.286Z,2656
2016-11-20T12:12:28.299Z,2620
2016-11-20T12:13:43.242Z,2584
2016-11-20T12:14:58.177Z,2532
2016-11-20T12:15:28.367Z,2524
2016-11-20T12:16:28.407Z,2532
2016-11-20T12:17:28.410Z,2572
2016-11-20T12:18:28.431Z,2600
2016-11-20T12:19:28.444Z,2568
2016-11-20T12:20:28.474Z,2500
2016-11-20T12:21:28.487Z,2432
2016-11-20T12:22:43.423Z,2344
2016-11-20T12:23:28.534Z,2284
2016-11-20T12:24:28.545Z,2228
2016-11-20T12:25:28.571Z,2184
2016-11-20T12:26:29.076Z,2132
2016-11-20T12:27:28.601Z,2072
2016-11-20T12:28:28.633Z,2040
2016-11-20T12:29:28.645Z,2044
2016-11-20T12:30:43.584Z,2004
2016-11-20T12:31:28.693Z,1988
2016-11-20T12:32:28.711Z,1980
2016-11-20T12:33:28.729Z,1984
2016-11-20T12:34:28.749Z,2008
2016-11-20T12:35:28.771Z,2020
2016-11-20T12:36:43.707Z,2024
2016-11-20T12:37:43.726Z,2036
2016-11-20T12:38:28.825Z,2040
2016-11-20T12:39:28.852Z,2068
2016-11-20T12:40:28.871Z,2128
2016-11-20T12:41:28.889Z,2212
2016-11-20T12:42:28.913Z,2316
2016-11-20T12:44:28.950Z,2472
2016-11-20T12:45:28.973Z,2488
2016-11-20T12:46:43.903Z,2424
2016-11-20T12:47:29.017Z,2364
2016-11-20T12:48:29.033Z,2280
2016-11-20T12:49:29.051Z,2216
2016-11-20T12:50:29.074Z,2168
2016-11-20T12:51:29.108Z,2096
2016-11-20T12:52:29.107Z,2008
2016-11-20T12:53:29.134Z,1928
2016-11-20T12:54:29.149Z,1860
2016-11-20T12:55:29.170Z,1808
2016-11-20T12:56:29.191Z,1776
2016-11-20T12:58:29.230Z,1760
2016-11-20T12:59:29.252Z,1744
2016-11-20T13:00:29.269Z,1732
2016-11-20T13:02:29.315Z,1664
2016-11-20T13:04:29.374Z,1608
2016-11-20T13:06:29.393Z,1556
2016-11-20T13:07:44.330Z,1532
2016-11-20T13:08:44.349Z,1544
2016-11-20T13:09:29.458Z,1556
2016-11-20T13:10:29.471Z,1592
2016-11-20T13:11:29.492Z,1600
2016-11-20T13:12:29.513Z,1588
2016-11-20T13:13:29.530Z,1556
2016-11-20T13:14:29.553Z,1496
2016-11-20T13:15:29.572Z,1448
2016-11-20T13:16:29.598Z,1404
2016-11-20T13:17:29.614Z,1372
2016-11-20T13:18:29.637Z,1364
2016-11-20T13:19:29.653Z,1356
2016-11-20T13:20:29.670Z,1344
2016-11-20T13:21:29.695Z,1312
2016-11-20T13:22:29.715Z,1276
2016-11-20T13:23:44.650Z,1256
2016-11-20T13:24:29.756Z,1244
2016-11-20T13:25:29.773Z,1240
2016-11-20T13:26:29.797Z,1216
2016-11-20T13:27:44.726Z,1168
2016-11-20T13:28:29.831Z,1124
2016-11-20T13:29:29.853Z,1072
2016-11-20T13:30:29.870Z,1036
2016-11-20T13:31:29.889Z,1008
2016-11-20T13:32:29.909Z,984
2016-11-20T13:33:45.160Z,1000
2016-11-20T13:34:29.952Z,1024
2016-11-20T13:35:29.972Z,1048
2016-11-20T13:36:29.994Z,1076
2016-11-20T13:37:30.013Z,1096
2016-11-20T13:38:30.340Z,1116
2016-11-20T13:39:30.055Z,1136
2016-11-20T13:40:30.075Z,1108
2016-11-20T13:41:30.094Z,1072
2016-11-20T13:42:30.114Z,1052
2016-11-20T13:43:45.064Z,1052
2016-11-20T13:44:30.147Z,1068
2016-11-20T13:45:30.173Z,1084
2016-11-20T13:46:30.214Z,1072
2016-11-20T13:47:45.127Z,1024
2016-11-20T13:48:30.228Z,996
2016-11-20T13:51:30.298Z,980
2016-11-20T13:52:30.611Z,996
2016-11-20T13:54:30.361Z,1044
2016-11-20T13:55:30.370Z,1036
2016-11-20T13:56:30.387Z,992
2016-11-20T13:57:30.410Z,948
2016-11-20T13:58:30.438Z,920
2016-11-20T13:59:45.364Z,856
2016-11-20T14:00:30.515Z,820
2016-11-20T14:01:30.490Z,780
2016-11-20T14:02:30.518Z,744
2016-11-20T14:03:30.535Z,700
2016-11-20T14:04:30.552Z,660
2016-11-20T14:05:45.484Z,644
2016-11-20T14:06:30.585Z,664
2016-11-20T14:07:30.609Z,692
2016-11-20T14:08:30.642Z,696
2016-11-20T14:09:30.651Z,680
2016-11-20T14:10:30.679Z,668
2016-11-20T14:11:30.744Z,660
2016-11-20T14:12:30.712Z,656
2016-11-20T14:13:30.781Z,652
2016-11-20T14:14:30.755Z,644
2016-11-20T14:15:30.770Z,632
2016-11-20T14:16:30.797Z,616
2016-11-20T14:17:30.821Z,616
2016-11-20T14:18:30.835Z,600
2016-11-20T14:19:30.882Z,580
2016-11-20T14:20:30.877Z,564
2016-11-20T14:21:45.810Z,536
2016-11-20T14:22:30.918Z,524
2016-11-20T14:24:30.957Z,504
2016-11-20T14:26:31.002Z,472
2016-11-20T14:27:31.018Z,444
2016-11-20T14:28:31.038Z,424
2016-11-20T14:29:45.972Z,404
2016-11-20T14:31:31.098Z,376
2016-11-20T14:32:31.130Z,360
2016-11-20T14:33:31.139Z,348
2016-11-20T14:34:31.164Z,336
2016-11-20T14:35:31.190Z,328
2016-11-20T14:36:46.126Z,324
2016-11-20T14:37:31.217Z,320
2016-11-20T14:38:31.246Z,316
2016-11-20T14:39:31.261Z,300
2016-11-20T14:40:31.282Z,284
2016-11-20T14:41:31.301Z,280
2016-11-20T14:42:31.320Z,276
2016-11-20T14:43:31.345Z,268
2016-11-20T14:44:31.371Z,260
2016-11-20T14:45:31.381Z,248
2016-11-20T14:46:31.429Z,240
2016-11-20T14:47:31.426Z,228
2016-11-20T14:48:46.363Z,212
2016-11-20T14:49:31.559Z,196
2016-11-20T14:50:31.482Z,176
2016-11-20T14:51:31.509Z,152
2016-11-20T14:52:46.456Z,128
2016-11-20T14:53:31.544Z,116
2016-11-20T14:54:31.569Z,104